createdAt,value
2017-11-06T00:02:19.407Z,8.30
2017-11-06T00:04:46.518Z,8.30
2017-11-06T00:07:12.915Z,8.20
2017-11-06T00:09:39.441Z,8.30
2017-11-06T00:12:05.788Z,8.30
2017-11-06T00:14:36.368Z,8.30
2017-11-06T00:17:07.478Z,8.20
2017-11-06T00:19:33.781Z,8.20
2017-11-06T00:22:00.431Z,8.20
2017-11-06T00:24:26.871Z,8.20
2017-11-06T00:26:53.399Z,8.20
2017-11-06T00:29:19.850Z,8.20
2017-11-06T00:31:47.142Z,8.20
2017-11-06T00:34:14.474Z,8.10
2017-11-06T00:36:41.109Z,8.10
2017-11-06T00:39:07.603Z,8.10
2017-11-06T00:41:34.003Z,8.10
2017-11-06T00:44:00.395Z,8.10
2017-11-06T00:46:26.770Z,8.00
2017-11-06T00:48:53.137Z,8.00
2017-11-06T00:51:19.574Z,8.10
2017-11-06T00:53:45.915Z,8.00
2017-11-06T00:56:12.280Z,8.10
2017-11-06T00:58:38.690Z,8.00
2017-11-06T01:01:05.792Z,7.90
2017-11-06T01:03:32.249Z,7.90
2017-11-06T01:05:58.568Z,7.90
2017-11-06T01:08:24.958Z,8.00
2017-11-06T01:10:52.040Z,7.90
2017-11-06T01:13:19.204Z,7.90
2017-11-06T01:15:45.496Z,7.80
2017-11-06T01:18:12.548Z,7.80
2017-11-06T01:20:39.623Z,7.80
2017-11-06T01:23:06.056Z,7.80
2017-11-06T01:25:34.016Z,7.80
2017-11-06T01:28:00.314Z,7.80
2017-11-06T01:30:27.448Z,7.70
2017-11-06T01:32:53.712Z,7.70
2017-11-06T01:35:19.982Z,7.70
2017-11-06T01:37:46.543Z,7.70
2017-11-06T01:40:13.705Z,7.70
2017-11-06T01:42:40.061Z,7.70
2017-11-06T01:45:06.523Z,7.70
2017-11-06T01:47:32.775Z,7.70
2017-11-06T01:49:59.222Z,7.70
2017-11-06T01:52:25.508Z,7.70
2017-11-06T01:54:51.758Z,7.60
2017-11-06T01:57:18.026Z,7.60
2017-11-06T01:59:44.303Z,7.60
2017-11-06T02:02:10.571Z,7.60
2017-11-06T02:04:37.553Z,7.50
2017-11-06T02:07:03.832Z,7.50
2017-11-06T02:09:31.038Z,7.50
2017-11-06T02:11:57.442Z,7.50
2017-11-06T02:14:23.738Z,7.50
2017-11-06T02:16:50.019Z,7.40
2017-11-06T02:19:16.276Z,7.40
2017-11-06T02:21:42.591Z,7.40
2017-11-06T02:24:08.831Z,7.40
2017-11-06T02:26:35.074Z,7.40
2017-11-06T02:29:01.335Z,7.30
2017-11-06T02:31:28.408Z,7.40
2017-11-06T02:33:54.797Z,7.30
2017-11-06T02:36:21.256Z,7.30
2017-11-06T02:38:47.596Z,7.30
2017-11-06T02:41:13.867Z,7.20
2017-11-06T02:43:40.169Z,7.20
2017-11-06T02:46:06.552Z,7.20
2017-11-06T02:48:33.625Z,7.10
2017-11-06T02:50:59.891Z,7.10
2017-11-06T02:53:26.295Z,7.10
2017-11-06T02:55:52.597Z,7.10
2017-11-06T02:58:19.618Z,7.10
2017-11-06T03:00:46.029Z,7.10
2017-11-06T03:03:12.386Z,7.20
2017-11-06T03:05:39.513Z,7.20
2017-11-06T03:08:05.782Z,7.20
2017-11-06T03:10:32.804Z,7.10
2017-11-06T03:12:59.079Z,7.10
2017-11-06T03:15:25.399Z,7.10
2017-11-06T03:17:51.692Z,7.20
2017-11-06T03:20:17.962Z,7.20
2017-11-06T03:22:44.226Z,7.20
2017-11-06T03:25:10.551Z,7.10
2017-11-06T03:27:36.817Z,7.10
2017-11-06T03:30:03.201Z,7.10
2017-11-06T03:32:29.529Z,7.10
2017-11-06T03:34:55.760Z,7.10
2017-11-06T03:37:22.065Z,7.20
2017-11-06T03:39:48.433Z,7.20
2017-11-06T03:42:14.803Z,7.20
2017-11-06T03:44:41.859Z,7.30
2017-11-06T03:47:08.214Z,7.20
2017-11-06T03:49:34.469Z,7.20
2017-11-06T03:52:00.791Z,7.30
2017-11-06T03:54:27.006Z,7.20
2017-11-06T03:56:53.272Z,7.20
2017-11-06T03:59:19.509Z,7.30
2017-11-06T04:01:45.761Z,7.30
2017-11-06T04:04:12.740Z,7.20
2017-11-06T04:06:39.067Z,7.20
2017-11-06T04:09:05.354Z,7.20
2017-11-06T04:11:32.463Z,7.10
2017-11-06T04:13:59.461Z,7.10
2017-11-06T04:16:25.752Z,7.10
2017-11-06T04:18:51.974Z,7.10
2017-11-06T04:21:18.212Z,7.10
2017-11-06T04:23:45.289Z,7.10
2017-11-06T04:26:12.321Z,7.10
2017-11-06T04:28:38.653Z,7.10
2017-11-06T04:31:05.682Z,7.10
2017-11-06T04:33:33.802Z,7.10
2017-11-06T04:36:00.078Z,7.10
2017-11-06T04:38:26.351Z,7.10
2017-11-06T04:41:00.460Z,7.10
2017-11-06T04:43:26.757Z,7.10
2017-11-06T04:45:53.109Z,7.00
2017-11-06T04:48:19.361Z,7.00
2017-11-06T04:50:46.403Z,6.90
2017-11-06T04:53:13.387Z,6.90
2017-11-06T04:55:39.864Z,6.90
2017-11-06T04:58:06.163Z,6.90
2017-11-06T05:00:32.447Z,6.80
2017-11-06T05:02:58.701Z,6.80
2017-11-06T05:05:24.915Z,6.80
2017-11-06T05:07:51.228Z,6.80
2017-11-06T05:10:17.487Z,6.80
2017-11-06T05:12:43.763Z,6.80
2017-11-06T05:15:10.179Z,6.80
2017-11-06T05:17:36.431Z,6.80
2017-11-06T05:20:02.755Z,6.80
2017-11-06T05:22:28.996Z,6.80
2017-11-06T05:24:55.993Z,6.80
2017-11-06T05:27:22.255Z,6.80
2017-11-06T05:29:48.603Z,6.80
2017-11-06T05:32:14.855Z,6.80
2017-11-06T05:34:41.157Z,6.80
2017-11-06T05:37:09.244Z,6.70
2017-11-06T05:39:35.678Z,6.60
2017-11-06T05:42:01.955Z,6.60
2017-11-06T05:44:28.551Z,6.60
2017-11-06T05:46:54.948Z,6.50
2017-11-06T05:49:21.218Z,6.50
2017-11-06T05:51:47.522Z,6.50
2017-11-06T05:54:14.571Z,6.40
2017-11-06T05:56:40.848Z,6.40
2017-11-06T05:59:07.168Z,6.40
2017-11-06T06:01:33.498Z,6.40
2017-11-06T06:03:59.873Z,6.40
2017-11-06T06:06:26.627Z,6.30
2017-11-06T06:08:53.123Z,6.30
2017-11-06T06:11:19.499Z,6.30
2017-11-06T06:13:45.718Z,6.20
2017-11-06T06:16:11.998Z,6.20
2017-11-06T06:18:38.281Z,6.20
2017-11-06T06:21:04.690Z,6.20
2017-11-06T06:23:31.702Z,6.10
2017-11-06T06:25:57.960Z,6.10
2017-11-06T06:28:24.229Z,6.10
2017-11-06T06:30:50.507Z,6.10
2017-11-06T06:33:16.811Z,6.10
2017-11-06T06:35:43.035Z,6.00
2017-11-06T06:38:09.331Z,6.00
2017-11-06T06:40:35.721Z,6.00
2017-11-06T06:43:02.034Z,6.00
2017-11-06T06:45:28.918Z,6.00
2017-11-06T06:47:56.034Z,6.00
2017-11-06T06:50:22.611Z,6.00
2017-11-06T06:52:48.911Z,6.00
2017-11-06T06:55:15.241Z,6.00
2017-11-06T06:57:41.544Z,6.00
2017-11-06T07:00:07.847Z,6.10
2017-11-06T07:02:34.166Z,6.10
2017-11-06T07:05:00.472Z,6.10
2017-11-06T07:07:26.834Z,6.10
2017-11-06T07:09:53.127Z,6.10
2017-11-06T07:12:19.407Z,6.10
2017-11-06T07:14:45.694Z,6.10
2017-11-06T07:17:11.968Z,6.10
2017-11-06T07:19:38.220Z,6.10
2017-11-06T07:22:04.503Z,6.10
2017-11-06T07:24:30.722Z,6.10
2017-11-06T07:26:57.688Z,6.10
2017-11-06T07:29:23.997Z,6.00
2017-11-06T07:31:50.951Z,6.10
2017-11-06T07:34:17.168Z,6.00
2017-11-06T07:36:44.921Z,6.10
2017-11-06T07:39:11.163Z,6.10
2017-11-06T07:41:38.158Z,6.00
2017-11-06T07:44:04.463Z,6.00
2017-11-06T07:46:30.723Z,6.10
2017-11-06T07:48:57.094Z,6.20
2017-11-06T07:51:24.094Z,6.20
2017-11-06T07:53:50.364Z,6.20
2017-11-06T07:56:17.333Z,6.30
2017-11-06T07:58:43.630Z,6.30
2017-11-06T08:01:10.608Z,6.30
2017-11-06T08:03:36.971Z,6.30
2017-11-06T08:06:03.262Z,6.40
2017-11-06T08:08:30.231Z,6.40
2017-11-06T08:10:56.575Z,6.40
2017-11-06T08:13:22.991Z,6.60
2017-11-06T08:15:49.267Z,6.60
2017-11-06T08:18:15.508Z,6.60
2017-11-06T08:20:42.523Z,6.80
2017-11-06T08:23:09.691Z,6.80
2017-11-06T08:25:35.964Z,6.80
2017-11-06T08:28:02.232Z,6.90
2017-11-06T08:30:29.273Z,6.80
2017-11-06T08:32:55.684Z,6.80
2017-11-06T08:35:23.825Z,6.80
2017-11-06T08:37:51.316Z,6.80
2017-11-06T08:40:17.665Z,6.80
2017-11-06T08:42:43.986Z,6.80
2017-11-06T08:45:10.375Z,6.90
2017-11-06T08:47:36.730Z,6.90
2017-11-06T08:50:03.248Z,6.90
2017-11-06T08:52:29.522Z,7.10
2017-11-06T08:54:55.869Z,7.20
2017-11-06T08:57:22.927Z,7.20
2017-11-06T08:59:49.932Z,7.20
2017-11-06T09:02:17.223Z,7.20
2017-11-06T09:04:44.586Z,7.20
2017-11-06T09:07:11.364Z,7.20
2017-11-06T09:09:37.732Z,7.30
2017-11-06T09:12:04.044Z,7.40
2017-11-06T09:14:30.362Z,7.40
2017-11-06T09:16:56.840Z,7.50
2017-11-06T09:19:23.866Z,7.50
2017-11-06T09:21:50.315Z,7.60
2017-11-06T09:24:17.339Z,7.90
2017-11-06T09:26:43.588Z,7.90
2017-11-06T09:29:09.915Z,7.80
2017-11-06T09:31:36.200Z,7.80
2017-11-06T09:34:02.798Z,7.80
2017-11-06T09:36:29.814Z,7.70
2017-11-06T09:38:56.060Z,7.70
2017-11-06T09:41:22.363Z,7.60
2017-11-06T09:43:48.657Z,7.70
2017-11-06T09:46:14.991Z,7.70
2017-11-06T09:48:41.223Z,7.70
2017-11-06T09:51:07.543Z,7.80
2017-11-06T09:53:33.843Z,7.90
2017-11-06T09:56:06.856Z,7.90
2017-11-06T09:58:36.176Z,7.90
2017-11-06T10:01:02.424Z,7.90
2017-11-06T10:03:28.733Z,8.00
2017-11-06T10:05:55.790Z,8.10
2017-11-06T10:08:22.365Z,8.40
2017-11-06T10:10:50.019Z,8.60
2017-11-06T10:13:16.629Z,8.80
2017-11-06T10:15:43.084Z,9.50
2017-11-06T10:18:09.342Z,10.60
2017-11-06T10:20:36.398Z,13.30
2017-11-06T10:23:02.655Z,13.30
2017-11-06T10:25:28.938Z,13.90
2017-11-06T10:28:04.466Z,14.80
2017-11-06T10:30:31.484Z,14.70
2017-11-06T10:32:57.728Z,14.70
2017-11-06T10:35:24.500Z,14.50
2017-11-06T10:37:52.211Z,15.20
2017-11-06T10:40:19.924Z,16.10
2017-11-06T10:42:46.977Z,15.80
2017-11-06T10:45:13.304Z,15.70
2017-11-06T10:47:40.295Z,14.80
2017-11-06T10:50:06.558Z,14.80
2017-11-06T10:52:32.783Z,14.40
2017-11-06T10:54:59.071Z,14.10
2017-11-06T10:57:25.338Z,14.20
2017-11-06T10:59:52.597Z,14.40
2017-11-06T11:02:19.615Z,13.80
2017-11-06T11:04:45.939Z,13.80
2017-11-06T11:07:12.255Z,12.10
2017-11-06T11:09:38.502Z,11.10
2017-11-06T11:12:04.758Z,10.10
2017-11-06T11:14:32.791Z,9.00
2017-11-06T11:17:00.675Z,8.70
2017-11-06T11:19:26.945Z,8.70
2017-11-06T11:21:53.226Z,8.60
2017-11-06T11:24:20.545Z,8.50
2017-11-06T11:26:47.762Z,8.50
2017-11-06T11:29:14.779Z,8.50
2017-11-06T11:31:41.112Z,8.50
2017-11-06T11:34:07.505Z,8.50
2017-11-06T11:36:42.774Z,8.40
2017-11-06T11:39:09.918Z,8.50
2017-11-06T11:41:36.244Z,8.40
2017-11-06T11:44:02.496Z,8.50
2017-11-06T11:46:28.791Z,8.50
2017-11-06T11:48:55.027Z,8.50
2017-11-06T11:51:21.326Z,8.60
2017-11-06T11:53:47.716Z,8.70
2017-11-06T11:56:13.996Z,8.80
2017-11-06T11:58:41.014Z,8.80
2017-11-06T12:01:07.299Z,8.80
2017-11-06T12:03:33.560Z,8.80
2017-11-06T12:06:00.867Z,8.90
2017-11-06T12:08:27.202Z,9.00
2017-11-06T12:10:53.471Z,9.00
2017-11-06T12:13:19.702Z,9.00
2017-11-06T12:15:46.041Z,9.00
2017-11-06T12:18:13.046Z,9.00
2017-11-06T12:20:39.314Z,9.00
2017-11-06T12:23:05.584Z,9.10
2017-11-06T12:25:31.822Z,9.20
2017-11-06T12:27:58.071Z,9.20
2017-11-06T12:30:24.307Z,9.20
2017-11-06T12:32:50.550Z,9.30
2017-11-06T12:35:16.854Z,9.40
2017-11-06T12:37:43.119Z,9.40
2017-11-06T12:40:10.170Z,9.40
2017-11-06T12:42:37.155Z,9.40
2017-11-06T12:45:03.435Z,9.40
2017-11-06T12:47:29.671Z,9.50
2017-11-06T12:49:55.909Z,9.50
2017-11-06T12:52:22.887Z,9.50
2017-11-06T12:54:49.131Z,9.50
2017-11-06T12:57:16.218Z,9.50
2017-11-06T12:59:42.628Z,9.50
2017-11-06T13:02:08.848Z,9.50
2017-11-06T13:04:35.369Z,9.50
2017-11-06T13:07:04.674Z,9.60
2017-11-06T13:09:30.886Z,9.50
2017-11-06T13:11:57.152Z,9.60
2017-11-06T13:14:24.214Z,9.60
2017-11-06T13:16:51.295Z,9.60
2017-11-06T13:19:17.533Z,9.60
2017-11-06T13:21:43.766Z,9.70
2017-11-06T13:24:09.998Z,9.70
2017-11-06T13:26:36.267Z,9.70
2017-11-06T13:29:03.260Z,9.80
2017-11-06T13:31:29.535Z,9.80
2017-11-06T13:33:55.777Z,9.80
2017-11-06T13:36:22.762Z,9.80
2017-11-06T13:38:48.974Z,9.80
2017-11-06T13:41:15.246Z,9.80
2017-11-06T13:43:41.510Z,9.80
2017-11-06T13:46:08.528Z,9.90
2017-11-06T13:48:34.785Z,9.90
2017-11-06T13:51:01.897Z,9.80
2017-11-06T13:53:28.146Z,9.80
2017-11-06T13:55:54.399Z,9.90
2017-11-06T13:58:21.406Z,9.90
2017-11-06T14:00:47.665Z,9.90
2017-11-06T14:03:14.788Z,9.80
2017-11-06T14:05:41.043Z,9.80
2017-11-06T14:08:08.058Z,9.70
2017-11-06T14:10:34.342Z,9.70
2017-11-06T14:13:00.699Z,9.60
2017-11-06T14:15:26.988Z,9.60
2017-11-06T14:17:53.304Z,9.70
2017-11-06T14:20:20.329Z,9.60
2017-11-06T14:22:46.641Z,9.60
2017-11-06T14:25:12.951Z,9.60
2017-11-06T14:27:39.207Z,9.60
2017-11-06T14:30:05.660Z,9.60
2017-11-06T14:32:31.943Z,9.50
2017-11-06T14:34:58.174Z,9.50
2017-11-06T14:37:24.458Z,9.50
2017-11-06T14:39:51.501Z,9.40
2017-11-06T14:42:18.546Z,9.30
2017-11-06T14:44:45.604Z,9.30
2017-11-06T14:47:12.619Z,9.20
2017-11-06T14:49:38.859Z,9.20
2017-11-06T14:52:05.145Z,9.30
2017-11-06T14:54:31.536Z,9.30
2017-11-06T14:56:57.959Z,9.20
2017-11-06T14:59:24.178Z,9.20
2017-11-06T15:01:50.486Z,9.10
2017-11-06T15:04:16.802Z,9.10
2017-11-06T15:06:43.139Z,9.00
2017-11-06T15:09:09.449Z,8.90
2017-11-06T15:11:35.709Z,8.70
2017-11-06T15:14:02.079Z,8.70
2017-11-06T15:16:29.123Z,8.50
2017-11-06T15:18:56.125Z,8.50
2017-11-06T15:21:22.434Z,8.50
2017-11-06T15:23:48.670Z,8.50
2017-11-06T15:26:14.928Z,8.40
2017-11-06T15:28:41.245Z,8.40
2017-11-06T15:31:07.503Z,8.40
2017-11-06T15:33:33.737Z,8.40
2017-11-06T15:36:00.727Z,8.30
2017-11-06T15:38:26.969Z,8.30
2017-11-06T15:40:53.255Z,8.30
2017-11-06T15:43:20.307Z,8.20
2017-11-06T15:45:46.662Z,8.20
2017-11-06T15:48:12.955Z,8.10
2017-11-06T15:50:39.242Z,8.10
2017-11-06T15:53:05.572Z,8.00
2017-11-06T15:55:31.806Z,8.00
2017-11-06T15:57:58.135Z,7.90
2017-11-06T16:00:24.422Z,7.80
2017-11-06T16:02:50.694Z,7.70
2017-11-06T16:05:16.972Z,7.60
2017-11-06T16:07:43.347Z,7.50
2017-11-06T16:10:10.617Z,7.40
2017-11-06T16:12:36.932Z,7.40
2017-11-06T16:15:03.168Z,7.40
2017-11-06T16:17:36.402Z,7.30
2017-11-06T16:20:03.389Z,7.20
2017-11-06T16:22:29.661Z,7.20
2017-11-06T16:24:56.044Z,7.20
2017-11-06T16:27:22.281Z,7.20
2017-11-06T16:29:48.611Z,7.20
2017-11-06T16:32:14.883Z,7.30
2017-11-06T16:34:41.207Z,7.30
2017-11-06T16:37:08.223Z,7.40
2017-11-06T16:39:34.462Z,7.40
2017-11-06T16:42:00.751Z,7.50
2017-11-06T16:44:27.044Z,7.40
2017-11-06T16:46:54.068Z,7.30
2017-11-06T16:49:21.090Z,7.30
2017-11-06T16:51:58.162Z,7.30
2017-11-06T16:54:24.436Z,7.30
2017-11-06T16:56:51.689Z,7.30
2017-11-06T16:59:18.172Z,7.20
2017-11-06T17:01:45.190Z,7.20
2017-11-06T17:04:20.064Z,7.20
2017-11-06T17:06:55.905Z,7.20
2017-11-06T17:09:22.931Z,7.20
2017-11-06T17:11:50.029Z,7.20
2017-11-06T17:14:16.552Z,7.20
2017-11-06T17:16:44.320Z,7.20
2017-11-06T17:19:10.842Z,7.20
2017-11-06T17:21:37.335Z,7.10
2017-11-06T17:24:03.692Z,7.10
2017-11-06T17:26:30.070Z,7.10
2017-11-06T17:28:57.261Z,7.10
2017-11-06T17:31:24.001Z,7.10
2017-11-06T17:33:54.086Z,7.10
2017-11-06T17:36:23.317Z,7.10
2017-11-06T17:38:49.751Z,7.10
2017-11-06T17:41:16.147Z,7.00
2017-11-06T17:43:42.493Z,7.00
2017-11-06T17:46:08.820Z,6.90
2017-11-06T17:48:35.918Z,6.90
2017-11-06T17:51:09.081Z,6.90
2017-11-06T17:53:38.257Z,6.90
2017-11-06T17:56:07.363Z,6.90
2017-11-06T17:58:38.607Z,6.80
2017-11-06T18:03:42.743Z,6.70
2017-11-06T18:06:09.171Z,6.70
2017-11-06T18:08:40.213Z,6.60
2017-11-06T18:11:07.093Z,6.60
2017-11-06T18:13:37.719Z,6.60
2017-11-06T18:16:04.644Z,6.60
2017-11-06T18:18:32.516Z,6.60
2017-11-06T18:20:59.135Z,6.50
2017-11-06T18:23:26.680Z,6.50
2017-11-06T18:25:56.698Z,6.50
2017-11-06T18:28:41.478Z,6.40
2017-11-06T18:31:09.600Z,6.40
2017-11-06T18:33:37.003Z,6.40
2017-11-06T18:36:03.309Z,6.40
2017-11-06T18:38:31.182Z,6.40
2017-11-06T18:40:57.495Z,6.30
2017-11-06T18:43:32.722Z,6.30
2017-11-06T18:45:59.111Z,6.30
2017-11-06T18:48:25.359Z,6.20
2017-11-06T18:50:52.144Z,6.20
2017-11-06T18:53:20.515Z,6.20
2017-11-06T18:55:47.547Z,6.10
2017-11-06T18:58:16.123Z,6.10
2017-11-06T19:00:42.437Z,6.20
2017-11-06T19:03:25.839Z,6.10
2017-11-06T19:05:53.313Z,6.10
2017-11-06T19:08:20.533Z,6.10
2017-11-06T19:10:48.636Z,6.10
2017-11-06T19:13:18.755Z,6.10
2017-11-06T19:15:46.086Z,6.00
2017-11-06T19:18:12.728Z,6.00
2017-11-06T19:20:39.063Z,6.00
2017-11-06T19:23:05.580Z,6.00
2017-11-06T19:25:34.211Z,6.00
2017-11-06T19:28:00.499Z,6.00
2017-11-06T19:30:27.631Z,6.00
2017-11-06T19:32:55.143Z,6.00
2017-11-06T19:35:29.354Z,5.90
2017-11-06T19:40:59.003Z,5.80
2017-11-06T19:43:25.905Z,5.70
2017-11-06T19:45:53.355Z,5.60
2017-11-06T19:48:19.771Z,5.80
2017-11-06T19:50:47.580Z,5.80
2017-11-06T19:53:14.713Z,5.80
2017-11-06T19:55:41.780Z,5.80
2017-11-06T19:58:08.273Z,5.80
2017-11-06T20:00:35.985Z,5.70
2017-11-06T20:03:04.021Z,5.70
2017-11-06T20:05:34.025Z,5.70
2017-11-06T20:08:01.641Z,5.60
2017-11-06T20:10:28.428Z,5.60
2017-11-06T20:12:54.897Z,5.60
2017-11-06T20:15:21.349Z,5.50
2017-11-06T20:17:49.090Z,5.50
2017-11-06T20:20:15.720Z,5.50
2017-11-06T20:22:42.029Z,5.40
2017-11-06T20:25:08.597Z,5.40
2017-11-06T20:27:35.373Z,5.40
2017-11-06T20:30:02.525Z,5.40
2017-11-06T20:32:29.595Z,5.40
2017-11-06T20:34:55.938Z,5.40
2017-11-06T20:37:25.380Z,5.40
2017-11-06T20:39:53.469Z,5.30
2017-11-06T20:42:32.550Z,5.30
2017-11-06T20:45:08.550Z,5.30
2017-11-06T20:47:38.114Z,5.20
2017-11-06T20:50:05.575Z,5.10
2017-11-06T20:52:31.891Z,5.10
2017-11-06T20:54:58.580Z,5.10
2017-11-06T20:57:24.933Z,5.00
2017-11-06T20:59:51.964Z,5.10
2017-11-06T21:02:19.103Z,5.00
2017-11-06T21:04:45.440Z,4.90
2017-11-06T21:10:00.314Z,4.90
2017-11-06T21:12:27.393Z,4.90
2017-11-06T21:14:54.570Z,4.80
2017-11-06T21:20:18.358Z,4.80
2017-11-06T21:22:48.911Z,4.80
2017-11-06T21:25:15.345Z,4.80
2017-11-06T21:27:41.689Z,4.80
2017-11-06T21:30:14.877Z,4.80
2017-11-06T21:32:41.387Z,4.80
2017-11-06T21:35:10.854Z,4.70
2017-11-06T21:37:42.194Z,4.70
2017-11-06T21:40:08.555Z,4.60
2017-11-06T21:42:34.865Z,4.60
2017-11-06T21:45:01.359Z,4.60
2017-11-06T21:47:28.715Z,4.60
2017-11-06T21:50:00.653Z,4.60
2017-11-06T21:52:27.092Z,4.60
2017-11-06T21:54:53.519Z,4.60
2017-11-06T21:57:28.535Z,4.70
2017-11-06T21:59:56.417Z,4.80
2017-11-06T22:02:23.288Z,4.80
2017-11-06T22:04:49.716Z,4.80
2017-11-06T22:07:21.394Z,4.80
2017-11-06T22:09:47.942Z,4.90
2017-11-06T22:12:14.188Z,4.90
2017-11-06T22:14:40.643Z,4.80
2017-11-06T22:17:06.875Z,4.70
2017-11-06T22:19:33.196Z,4.70
2017-11-06T22:21:59.562Z,4.80
2017-11-06T22:24:26.582Z,4.80
2017-11-06T22:26:52.877Z,4.80
2017-11-06T22:29:19.102Z,4.80
2017-11-06T22:31:45.447Z,4.70
2017-11-06T22:34:11.667Z,4.80
2017-11-06T22:36:43.620Z,4.80
2017-11-06T22:39:09.842Z,4.70
2017-11-06T22:41:36.112Z,4.70
2017-11-06T22:44:02.343Z,4.70
2017-11-06T22:46:28.624Z,4.80
2017-11-06T22:48:54.936Z,4.70
2017-11-06T22:51:21.251Z,4.70
2017-11-06T22:53:49.128Z,4.70
2017-11-06T22:56:15.541Z,4.70
2017-11-06T22:58:41.764Z,4.70
2017-11-06T23:01:08.486Z,4.60
2017-11-06T23:03:34.806Z,4.50
2017-11-06T23:06:01.108Z,4.50
2017-11-06T23:08:27.356Z,4.50
2017-11-06T23:10:53.606Z,4.40
2017-11-06T23:13:19.894Z,4.40
2017-11-06T23:15:46.276Z,4.50
2017-11-06T23:18:13.219Z,4.50
2017-11-06T23:20:39.598Z,4.50
2017-11-06T23:23:05.871Z,4.50
2017-11-06T23:25:32.135Z,4.40
2017-11-06T23:27:59.118Z,4.40
2017-11-06T23:30:25.367Z,4.40
2017-11-06T23:32:51.758Z,4.40
2017-11-06T23:35:18.143Z,4.40
2017-11-06T23:37:44.516Z,4.50
2017-11-06T23:40:10.820Z,4.50
2017-11-06T23:42:37.064Z,4.50
2017-11-06T23:45:04.080Z,4.40
2017-11-06T23:47:31.096Z,4.50
2017-11-06T23:49:57.330Z,4.50
2017-11-06T23:52:23.618Z,4.60
2017-11-06T23:54:50.048Z,4.60
2017-11-06T23:57:17.135Z,4.50
2017-11-06T23:59:43.571Z,4.50
